Time;durP1;ratioP1;P1;durP2;ratioP2;P2;SDS_P1;SDS_P2;PMS_P1;PMS_P2;Temp;Humidity;BMP_temperature;BMP_pressure;BME280_temperature;BME280_humidity;BME280_pressure;Samples;Min_cycle;Max_cycle;Signal;HPM_P1;HPM_P2
2021/10/08 00:01:32;;;;;;;13.30;6.75;;;;;;;6.69;54.28;103149.06;5027324;28;20552;-72
2021/10/08 00:03:57;;;;;;;10.98;5.10;;;;;;;6.72;54.10;103143.88;5029816;28;20036;-72
2021/10/08 00:06:23;;;;;;;11.45;5.07;;;;;;;6.73;54.15;103145.66;5010010;28;20041;-70
2021/10/08 00:08:49;;;;;;;11.52;5.32;;;;;;;6.70;54.30;103146.44;5027689;28;20037;-70
2021/10/08 00:11:15;;;;;;;12.43;4.90;;;;;;;6.72;54.10;103141.28;5018652;28;20411;-70
2021/10/08 00:13:42;;;;;;;9.23;4.35;;;;;;;6.70;53.62;103136.06;5028016;28;20044;-71
2021/10/08 00:16:08;;;;;;;11.35;5.97;;;;;;;6.60;54.13;103133.34;5037342;28;20064;-71
2021/10/08 00:18:37;;;;;;;14.35;5.60;;;;;;;6.53;54.19;103136.69;5035907;28;20033;-71
2021/10/08 00:21:03;;;;;;;11.88;5.22;;;;;;;6.48;54.37;103136.63;5028196;28;20466;-72
2021/10/08 00:23:30;;;;;;;9.77;4.95;;;;;;;6.46;54.39;103136.63;5012906;28;20539;-71
2021/10/08 00:25:55;;;;;;;8.77;4.70;;;;;;;6.41;54.70;103143.47;5028347;28;20049;-71
2021/10/08 00:28:20;;;;;;;10.52;4.72;;;;;;;6.44;54.39;103135.75;5029850;28;20032;-71
2021/10/08 00:30:46;;;;;;;13.65;5.53;;;;;;;6.47;54.24;103140.09;5028291;28;20041;-71
2021/10/08 00:33:12;;;;;;;7.43;3.28;;;;;;;6.41;54.60;103135.69;5027601;28;20037;-71
2021/10/08 00:35:37;;;;;;;8.32;3.78;;;;;;;6.40;54.30;103138.28;5006358;28;20053;-71
2021/10/08 00:38:05;;;;;;;8.48;4.05;;;;;;;6.43;54.53;103143.50;5028512;28;20310;-71
2021/10/08 00:40:40;;;;;;;8.63;3.47;;;;;;;6.43;54.23;103146.09;5028844;28;20037;-67
2021/10/08 00:43:06;;;;;;;7.25;3.75;;;;;;;6.39;54.16;103152.09;5026761;28;20258;-67
2021/10/08 00:45:31;;;;;;;5.05;3.22;;;;;;;6.42;54.20;103149.56;5016586;28;20046;-68
2021/10/08 00:47:57;;;;;;;8.00;2.70;;;;;;;6.50;53.90;103148.78;5044861;28;20630;-68
2021/10/08 00:50:22;;;;;;;5.78;2.50;;;;;;;6.39;54.13;103145.19;5030098;28;20048;-68
2021/10/08 00:52:48;;;;;;;4.43;2.83;;;;;;;6.32;54.16;103142.50;5028308;28;20068;-69
2021/10/08 00:55:13;;;;;;;5.53;2.78;;;;;;;6.25;54.18;103147.56;5029971;28;20398;-68
2021/10/08 00:57:39;;;;;;;4.97;2.60;;;;;;;6.20;54.23;103145.75;5032514;28;20047;-68
2021/10/08 01:00:05;;;;;;;6.43;2.50;;;;;;;6.19;54.05;103159.56;5034024;28;20036;-68
2021/10/08 01:02:30;;;;;;;3.65;1.73;;;;;;;6.17;53.99;103156.06;5050919;28;20083;-68
2021/10/08 01:04:56;;;;;;;5.55;2.28;;;;;;;6.13;53.89;103156.88;5010147;28;20440;-68
2021/10/08 01:07:23;;;;;;;4.75;2.40;;;;;;;6.03;54.10;103153.28;5040619;28;20612;-72
2021/10/08 01:09:48;;;;;;;3.95;1.90;;;;;;;6.09;54.02;103151.66;5031023;28;20453;-71
2021/10/08 01:12:14;;;;;;;4.70;2.35;;;;;;;6.10;54.05;103152.50;5049460;28;20032;-72
2021/10/08 01:14:41;;;;;;;2.40;1.55;;;;;;;6.13;53.67;103154.28;5038356;28;20458;-71
2021/10/08 01:17:15;;;;;;;5.88;2.55;;;;;;;6.11;53.83;103153.41;5031743;28;20033;-72
2021/10/08 01:19:45;;;;;;;2.90;1.70;;;;;;;6.12;53.99;103155.13;5049471;28;20044;-71
2021/10/08 01:22:10;;;;;;;2.20;1.17;;;;;;;6.08;54.12;103152.50;5039792;28;20041;-72
2021/10/08 01:24:37;;;;;;;2.83;1.83;;;;;;;5.99;53.65;103152.34;5030044;28;20033;-72
2021/10/08 01:27:06;;;;;;;3.15;1.55;;;;;;;5.95;53.92;103153.16;5039459;28;20568;-71
2021/10/08 01:29:34;;;;;;;3.28;2.10;;;;;;;6.09;53.58;103151.66;5030718;28;20030;-71
2021/10/08 01:32:00;;;;;;;3.88;1.98;;;;;;;6.09;53.61;103151.66;5030154;28;20083;-66
2021/10/08 01:34:27;;;;;;;2.40;1.30;;;;;;;6.00;53.64;103155.84;5029558;28;20064;-67
2021/10/08 01:36:55;;;;;;;2.28;1.17;;;;;;;5.93;53.63;103154.88;5034596;28;20088;-67
2021/10/08 01:39:21;;;;;;;4.22;1.50;;;;;;;5.97;53.59;103153.16;5032563;28;20151;-66
2021/10/08 01:41:46;;;;;;;3.85;1.83;;;;;;;5.89;53.47;103150.47;5038078;28;20061;-66
2021/10/08 01:44:18;;;;;;;2.70;1.50;;;;;;;5.82;53.38;103148.63;5039173;28;20048;-66
2021/10/08 01:46:44;;;;;;;4.25;1.77;;;;;;;5.79;53.51;103149.47;4985356;28;20084;-66
2021/10/08 01:49:10;;;;;;;3.20;1.80;;;;;;;5.75;53.57;103154.53;5031262;28;20443;-68
2021/10/08 01:51:36;;;;;;;3.55;1.73;;;;;;;5.80;53.28;103148.59;5039112;28;20033;-66
2021/10/08 01:54:01;;;;;;;2.15;1.15;;;;;;;5.80;53.54;103158.97;5015375;28;20109;-69
2021/10/08 01:56:30;;;;;;;3.65;1.95;;;;;;;5.63;53.81;103156.09;5029784;28;20041;-69
2021/10/08 01:59:02;;;;;;;3.67;1.33;;;;;;;5.65;53.48;103149.19;5038157;28;20424;-67
2021/10/08 02:01:29;;;;;;;3.08;1.50;;;;;;;5.74;53.50;103151.06;5033743;28;20098;-67
2021/10/08 02:03:59;;;;;;;4.57;2.70;;;;;;;5.66;53.72;103148.38;5029833;28;20025;-67
2021/10/08 02:06:26;;;;;;;5.45;2.40;;;;;;;5.65;53.68;103153.53;5033814;28;20091;-67
2021/10/08 02:08:52;;;;;;;4.10;2.08;;;;;;;5.63;53.73;103156.09;5013550;28;20034;-66
2021/10/08 02:11:18;;;;;;;5.07;2.35;;;;;;;5.58;53.63;103162.91;5029379;28;20096;-67
2021/10/08 02:13:44;;;;;;;5.38;1.80;;;;;;;5.53;53.56;103161.97;5019323;28;20037;-66
2021/10/08 02:16:12;;;;;;;5.05;3.47;;;;;;;5.51;53.85;103160.22;5031952;28;20570;-67
2021/10/08 02:18:45;;;;;;;5.97;2.83;;;;;;;5.50;54.25;103161.91;5048971;28;20041;-67
2021/10/08 02:21:10;;;;;;;5.32;2.72;;;;;;;5.48;53.89;103161.03;5032237;28;20041;-66
2021/10/08 02:23:38;;;;;;;7.90;2.72;;;;;;;5.55;54.24;103157.69;5045169;28;20514;-66
2021/10/08 02:26:05;;;;;;;3.70;2.20;;;;;;;5.64;54.10;103162.16;5035286;28;20402;-67
2021/10/08 02:28:31;;;;;;;6.00;2.38;;;;;;;5.73;54.13;103159.72;5030772;28;20033;-67
2021/10/08 02:30:56;;;;;;;4.78;2.67;;;;;;;5.89;53.92;103158.25;5044876;28;20497;-68
2021/10/08 02:33:27;;;;;;;7.22;2.80;;;;;;;6.01;54.21;103162.75;5038406;28;20039;-67
2021/10/08 02:35:53;;;;;;;14.20;5.05;;;;;;;6.02;53.64;103168.00;5028946;28;20034;-67
2021/10/08 02:38:18;;;;;;;13.23;6.18;;;;;;;6.05;53.67;103168.03;5028695;28;20078;-67
2021/10/08 02:40:45;;;;;;;15.85;6.07;;;;;;;6.03;53.80;103164.53;5030900;28;20048;-66
2021/10/08 02:43:11;;;;;;;19.70;6.55;;;;;;;5.94;54.00;103172.16;5021656;28;20042;-67
2021/10/08 02:45:37;;;;;;;18.00;6.22;;;;;;;5.86;54.20;103173.78;5037095;28;20044;-67
2021/10/08 02:48:03;;;;;;;16.30;6.10;;;;;;;5.80;54.58;103168.50;5027817;28;20029;-67
2021/10/08 02:50:32;;;;;;;15.27;5.78;;;;;;;5.76;54.57;103166.69;5044392;28;20037;-69
2021/10/08 02:52:58;;;;;;;19.48;7.22;;;;;;;5.75;54.19;103170.09;5031613;28;20547;-69
2021/10/08 02:55:24;;;;;;;14.70;5.55;;;;;;;5.72;54.61;103176.13;5017389;28;21650;-70
2021/10/08 02:57:50;;;;;;;12.80;5.20;;;;;;;5.78;54.57;103175.38;5029323;28;20109;-67
2021/10/08 03:00:15;;;;;;;14.95;5.57;;;;;;;5.82;54.12;103183.22;5024931;28;20517;-67
2021/10/08 03:02:41;;;;;;;13.40;5.72;;;;;;;5.79;54.52;103177.09;5026348;28;20032;-69
2021/10/08 03:05:09;;;;;;;8.65;4.80;;;;;;;5.74;54.49;103169.25;5030151;28;20125;-67
2021/10/08 03:07:35;;;;;;;11.82;5.25;;;;;;;5.70;54.49;103171.75;5028514;28;20124;-67
2021/10/08 03:10:06;;;;;;;10.73;4.82;;;;;;;5.78;54.72;103175.38;5036391;28;20044;-67
2021/10/08 03:12:33;;;;;;;;;;;;;;;5.81;54.33;103167.63;5028777;28;20029;-67
2021/10/08 03:14:59;;;;;;;13.02;5.50;;;;;;;5.74;54.36;103173.56;5028736;28;19944;-67
2021/10/08 03:17:25;;;;;;;11.40;4.68;;;;;;;5.71;54.56;103173.53;5029897;28;20070;-67
2021/10/08 03:19:50;;;;;;;6.70;4.72;;;;;;;5.69;54.56;103173.50;5032195;28;20045;-67
2021/10/08 03:22:16;;;;;;;8.00;4.65;;;;;;;5.72;54.43;103172.66;5037313;28;20029;-67
2021/10/08 03:24:43;;;;;;;10.50;4.55;;;;;;;5.70;54.68;103171.75;5027252;28;20040;-68
2021/10/08 03:27:09;;;;;;;10.60;4.88;;;;;;;5.64;54.85;103177.75;5012393;28;20025;-67
2021/10/08 03:29:34;;;;;;;10.05;5.30;;;;;;;5.66;54.82;103176.91;5029814;28;20444;-67
2021/10/08 03:32:00;;;;;;;10.10;4.80;;;;;;;5.69;54.91;103175.22;5030167;28;20508;-67
2021/10/08 03:34:26;;;;;;;8.05;4.93;;;;;;;5.67;54.77;103173.47;5036211;28;20452;-66
2021/10/08 03:36:58;;;;;;;10.50;5.60;;;;;;;5.71;55.00;103173.53;5027445;28;20057;-69
2021/10/08 03:39:28;;;;;;;9.73;5.63;;;;;;;5.74;54.97;103169.25;5034094;28;20028;-67
2021/10/08 03:41:54;;;;;;;7.90;5.05;;;;;;;5.80;55.00;103177.13;5022783;28;20051;-66
2021/10/08 03:44:21;;;;;;;8.40;5.30;;;;;;;5.85;54.88;103177.22;5029032;28;20033;-66
2021/10/08 03:46:54;;;;;;;8.25;5.35;;;;;;;5.96;54.50;103175.66;5020609;28;20124;-66
2021/10/08 03:49:22;;;;;;;13.35;6.05;;;;;;;5.95;54.35;103181.72;5038744;28;20466;-66
2021/10/08 03:51:49;;;;;;;11.20;5.90;;;;;;;5.98;54.20;103179.16;5033732;28;20045;-66
2021/10/08 03:54:17;;;;;;;14.00;5.88;;;;;;;6.00;54.25;103182.66;5033657;28;20040;-68
2021/10/08 03:56:43;;;;;;;9.45;5.70;;;;;;;5.93;54.02;103185.16;5027373;28;20052;-68
2021/10/08 03:59:09;;;;;;;11.32;5.85;;;;;;;5.85;54.32;103178.09;5027496;28;20029;-68
2021/10/08 04:01:35;;;;;;;6.82;4.45;;;;;;;5.86;54.22;103176.38;5026876;28;20406;-67
2021/10/08 04:04:04;;;;;;;11.55;5.80;;;;;;;5.86;54.33;103181.56;5032303;28;20032;-66
2021/10/08 04:06:32;;;;;;;11.13;6.00;;;;;;;5.85;54.50;103187.59;5043935;28;20033;-66
2021/10/08 04:09:00;;;;;;;9.05;5.05;;;;;;;5.86;54.59;103184.16;5010954;28;20521;-69
2021/10/08 04:11:26;;;;;;;6.63;3.95;;;;;;;5.85;54.25;103182.41;5035853;28;20144;-68
2021/10/08 04:13:52;;;;;;;9.35;5.47;;;;;;;5.82;54.45;103187.56;5032354;28;20149;-68
2021/10/08 04:16:19;;;;;;;8.50;5.30;;;;;;;5.70;54.41;103197.72;5028409;28;20592;-71
2021/10/08 04:18:45;;;;;;;8.63;4.75;;;;;;;5.60;54.58;103192.38;5030244;28;20025;-68
2021/10/08 04:21:11;;;;;;;9.93;5.38;;;;;;;5.54;54.85;103192.25;5033889;28;20060;-67
2021/10/08 04:23:37;;;;;;;8.30;5.00;;;;;;;5.45;54.39;103195.53;5036673;28;20028;-66
2021/10/08 04:26:03;;;;;;;5.53;4.75;;;;;;;5.39;54.97;103191.97;5026270;28;20126;-65
2021/10/08 04:28:28;;;;;;;5.32;4.13;;;;;;;5.42;54.83;103198.09;5035435;28;20037;-66
2021/10/08 04:30:54;;;;;;;6.80;4.30;;;;;;;5.41;54.70;103201.53;5032760;28;20029;-66
2021/10/08 04:33:22;;;;;;;9.48;5.13;;;;;;;5.36;55.00;103199.69;5031267;28;20029;-67
2021/10/08 04:35:59;;;;;;;6.25;5.03;;;;;;;5.32;55.26;103195.28;5031070;28;20037;-66
2021/10/08 04:38:29;;;;;;;7.97;5.28;;;;;;;5.27;55.09;103196.94;5035222;28;20033;-67
2021/10/08 04:40:56;;;;;;;13.52;5.80;;;;;;;5.21;55.09;103201.16;5033615;28;20048;-67
2021/10/08 04:43:21;;;;;;;9.05;4.82;;;;;;;5.22;55.25;103205.47;5033423;28;20548;-67
2021/10/08 04:45:47;;;;;;;5.38;4.05;;;;;;;5.25;55.38;103200.34;5047482;28;20083;-68
2021/10/08 04:48:13;;;;;;;6.72;3.78;;;;;;;5.29;55.16;103206.47;5035229;28;20030;-67
2021/10/08 04:50:40;;;;;;;7.88;5.35;;;;;;;5.26;55.24;103203.84;5031705;28;20082;-67
2021/10/08 04:53:13;;;;;;;15.02;5.53;;;;;;;5.22;55.07;103209.81;5037642;28;20075;-66
2021/10/08 04:55:40;;;;;;;17.67;5.72;;;;;;;5.16;55.37;103209.66;5035566;28;20057;-66
2021/10/08 04:58:06;;;;;;;12.25;6.03;;;;;;;5.14;55.32;103207.03;5039201;28;20524;-66
2021/10/08 05:00:32;;;;;;;15.57;5.78;;;;;;;5.09;55.58;103213.84;5034006;28;20033;-68
2021/10/08 05:02:59;;;;;;;7.93;5.03;;;;;;;5.09;55.43;103213.84;5036881;28;20041;-67
2021/10/08 05:05:25;;;;;;;9.63;6.05;;;;;;;5.10;55.73;103220.81;5028934;28;20083;-67
2021/10/08 05:07:50;;;;;;;12.85;6.43;;;;;;;5.10;55.64;103218.22;5040183;28;20144;-67
2021/10/08 05:10:20;;;;;;;8.93;5.70;;;;;;;5.13;55.54;103215.69;5033640;28;20143;-66
2021/10/08 05:12:46;;;;;;;7.93;5.22;;;;;;;5.17;55.64;103220.09;5029660;28;20041;-67
2021/10/08 05:15:12;;;;;;;10.52;5.95;;;;;;;5.20;55.21;103222.72;5046771;28;20073;-66
2021/10/08 05:17:37;;;;;;;8.73;5.70;;;;;;;5.16;55.63;103226.09;5015125;28;20148;-67
2021/10/08 05:20:03;;;;;;;16.88;5.72;;;;;;;5.15;55.48;103224.34;5035830;28;20441;-67
2021/10/08 05:22:40;;;;;;;9.65;5.97;;;;;;;5.21;55.72;103233.97;5035900;28;20029;-67
2021/10/08 05:25:06;;;;;;;11.27;5.25;;;;;;;5.18;55.47;103234.78;5026381;28;20106;-67
2021/10/08 05:27:33;;;;;;;14.85;5.72;;;;;;;5.16;55.48;103226.09;5032247;28;20037;-67
2021/10/08 05:29:58;;;;;;;7.85;5.35;;;;;;;5.11;55.21;103232.91;5032404;28;20100;-67
2021/10/08 05:32:23;;;;;;;11.55;5.40;;;;;;;5.06;55.63;103234.53;5029625;28;20394;-66
2021/10/08 05:34:49;;;;;;;9.85;5.40;;;;;;;5.03;55.73;103242.22;5031587;28;20040;-66
2021/10/08 05:37:15;;;;;;;11.00;6.05;;;;;;;4.99;55.63;103232.69;5030321;28;20029;-67
2021/10/08 05:39:41;;;;;;;11.38;6.40;;;;;;;4.98;55.57;103241.28;5037868;28;20052;-67
2021/10/08 05:42:07;;;;;;;11.13;5.68;;;;;;;4.92;55.32;103241.13;5035043;28;20045;-69
2021/10/08 05:44:33;;;;;;;11.40;5.53;;;;;;;4.93;55.30;103253.28;5034560;28;20030;-67
2021/10/08 05:46:59;;;;;;;9.10;6.00;;;;;;;4.94;55.30;103249.81;5033145;28;20033;-68
2021/10/08 05:49:24;;;;;;;13.45;6.55;;;;;;;4.91;55.52;103244.59;5035351;28;20036;-69
2021/10/08 05:51:50;;;;;;;10.63;5.47;;;;;;;4.90;55.58;103248.00;5034489;28;20501;-66
2021/10/08 05:54:16;;;;;;;11.52;6.85;;;;;;;4.91;55.75;103250.63;5030611;28;20052;-66
2021/10/08 05:56:41;;;;;;;10.77;6.32;;;;;;;4.97;55.91;103255.09;5037895;28;20068;-66
2021/10/08 05:59:07;;;;;;;10.50;5.97;;;;;;;5.02;55.68;103259.50;5030042;28;20037;-67
2021/10/08 06:01:32;;;;;;;12.02;5.88;;;;;;;5.08;55.94;103255.28;5028883;28;20041;-67
2021/10/08 06:04:01;;;;;;;12.45;6.03;;;;;;;5.14;55.79;103252.84;5028451;28;20401;-68
2021/10/08 06:06:26;;;;;;;13.23;6.30;;;;;;;5.26;55.67;103258.28;5034072;28;20041;-69
2021/10/08 06:08:52;;;;;;;8.20;5.82;;;;;;;5.40;55.56;103261.16;5030201;28;20504;-67
2021/10/08 06:11:19;;;;;;;11.15;6.25;;;;;;;5.54;55.46;103257.09;5031647;28;20596;-67
2021/10/08 06:13:46;;;;;;;9.30;5.95;;;;;;;5.76;55.20;103260.97;5027468;28;20037;-68
2021/10/08 06:16:11;;;;;;;11.65;7.10;;;;;;;5.97;55.03;103260.50;5027895;28;20040;-68
2021/10/08 06:18:37;;;;;;;11.75;5.90;;;;;;;5.99;54.50;103258.78;5033167;28;20822;-68
2021/10/08 06:21:05;;;;;;;12.95;5.95;;;;;;;6.19;54.72;103261.72;5037248;28;20037;-67
2021/10/08 06:23:31;;;;;;;11.93;6.32;;;;;;;6.31;54.09;103261.09;5030029;28;20068;-68
2021/10/08 06:25:58;;;;;;;9.95;7.05;;;;;;;6.43;53.99;103263.88;5027347;28;20049;-67
2021/10/08 06:28:24;;;;;;;27.48;11.07;;;;;;;6.54;53.62;103265.78;5028859;28;20061;-67
2021/10/08 06:30:51;;;;;;;8.05;5.38;;;;;;;6.70;53.63;103266.00;5043460;28;20492;-67
2021/10/08 06:33:17;;;;;;;10.48;5.50;;;;;;;6.79;52.95;103274.81;5045091;28;20021;-68
2021/10/08 06:35:46;;;;;;;13.35;5.85;;;;;;;6.77;53.04;103269.56;5030130;28;20030;-68
2021/10/08 06:38:13;;;;;;;12.85;10.25;;;;;;;6.72;52.83;103268.63;5038790;28;20114;-67
2021/10/08 06:40:40;;;;;;;4.82;4.43;;;;;;;6.78;53.27;103279.13;5028778;28;20029;-68
2021/10/08 06:43:09;;;;;;;7.13;5.05;;;;;;;7.03;53.52;103285.53;5036493;28;20131;-67
2021/10/08 06:45:40;;;;;;;5.93;4.30;;;;;;;7.20;52.79;103283.16;5032125;28;20346;-69
2021/10/08 06:48:07;;;;;;;7.72;5.20;;;;;;;7.71;52.58;103287.28;5025964;28;20032;-67
2021/10/08 06:50:36;;;;;;;8.48;6.03;;;;;;;9.97;49.83;103286.03;5027276;28;20513;-67
2021/10/08 06:53:03;;;;;;;9.13;5.78;;;;;;;12.19;46.25;103286.13;5046941;28;20534;-68
2021/10/08 06:55:29;;;;;;;6.43;4.35;;;;;;;14.00;42.19;103276.97;5041632;28;20064;-68
2021/10/08 06:57:55;;;;;;;4.13;3.70;;;;;;;15.56;38.30;103273.94;5027022;28;20029;-68
2021/10/08 07:00:23;;;;;;;5.63;3.85;;;;;;;16.91;34.04;103279.28;5024835;28;20037;-68
2021/10/08 07:02:53;;;;;;;5.10;4.28;;;;;;;17.78;30.63;103279.31;5028052;28;20112;-68
2021/10/08 07:05:23;;;;;;;5.93;4.90;;;;;;;18.57;28.62;103284.59;5009593;28;20343;-68
2021/10/08 07:07:51;;;;;;;4.93;3.70;;;;;;;19.18;27.88;103277.00;5043020;28;20514;-67
2021/10/08 07:10:19;;;;;;;5.30;3.60;;;;;;;19.65;26.55;103282.22;5023841;28;20454;-67
2021/10/08 07:12:44;;;;;;;5.85;4.20;;;;;;;20.09;26.82;103274.22;5029135;28;20048;-67
2021/10/08 07:15:16;;;;;;;4.40;3.95;;;;;;;20.06;26.02;103278.78;5029224;28;20413;-67
2021/10/08 07:17:44;;;;;;;;;;;;;;;19.93;27.12;103281.09;5038400;28;20073;-67
2021/10/08 07:20:10;;;;;;;6.47;5.63;;;;;;;19.73;27.83;103273.13;5036565;28;20245;-67
2021/10/08 07:22:37;;;;;;;9.38;6.97;;;;;;;20.34;26.63;103281.13;5031518;28;20041;-68
2021/10/08 07:25:05;;;;;;;10.40;7.28;;;;;;;20.37;26.62;103281.00;5036420;28;21172;-67
2021/10/08 07:27:31;;;;;;;11.93;8.20;;;;;;;20.09;28.04;103283.97;5028781;28;20036;-67
2021/10/08 07:29:56;;;;;;;8.55;6.80;;;;;;;20.36;27.69;103283.75;5043579;28;20042;-67
2021/10/08 07:32:22;;;;;;;12.27;8.70;;;;;;;20.18;28.04;103290.69;5029087;28;20076;-67
2021/10/08 07:34:47;;;;;;;11.88;8.13;;;;;;;20.27;28.67;103292.97;5044453;28;20040;-68
2021/10/08 07:37:13;;;;;;;12.15;9.13;;;;;;;20.57;27.47;103292.53;5031556;28;20325;-67
2021/10/08 07:39:40;;;;;;;15.48;10.30;;;;;;;20.64;27.98;103281.59;5030037;28;20144;-71
2021/10/08 07:42:06;;;;;;;12.13;9.63;;;;;;;20.92;28.18;103289.16;5028002;28;20480;-67
2021/10/08 07:44:31;;;;;;;15.10;10.20;;;;;;;21.81;24.89;103288.53;5029061;28;20040;-67
2021/10/08 07:46:57;;;;;;;21.25;11.85;;;;;;;21.94;26.14;103289.63;5029789;28;20042;-67
2021/10/08 07:49:22;;;;;;;17.30;12.52;;;;;;;21.61;26.73;103297.50;5029154;28;20044;-68
2021/10/08 07:51:48;;;;;;;15.68;11.10;;;;;;;21.91;26.16;103289.75;5025028;28;20642;-67
2021/10/08 07:54:16;;;;;;;17.23;11.90;;;;;;;21.96;26.16;103295.75;5024801;28;20040;-67
2021/10/08 07:56:41;;;;;;;22.92;13.63;;;;;;;22.28;26.71;103298.56;5027432;28;20057;-68
2021/10/08 07:59:06;;;;;;;18.98;13.05;;;;;;;21.87;27.83;103305.06;5026752;28;20064;-68
2021/10/08 08:01:32;;;;;;;17.30;11.95;;;;;;;22.14;26.90;103294.81;5029212;28;20082;-67
2021/10/08 08:03:58;;;;;;;14.13;10.93;;;;;;;22.32;26.26;103306.31;5029398;28;20402;-68
2021/10/08 08:06:23;;;;;;;14.75;10.32;;;;;;;22.47;26.57;103299.34;5028533;28;20124;-69
2021/10/08 08:08:49;;;;;;;12.77;9.57;;;;;;;22.43;26.79;103308.44;5030762;28;20044;-68
2021/10/08 08:11:14;;;;;;;13.38;9.43;;;;;;;22.20;26.16;103306.09;5030769;28;20041;-68
2021/10/08 08:13:40;;;;;;;12.48;8.93;;;;;;;21.89;26.44;103307.63;5029869;28;20443;-68
2021/10/08 08:16:05;;;;;;;16.45;9.60;;;;;;;21.41;26.87;103317.06;5028474;28;20107;-68
2021/10/08 08:18:31;;;;;;;13.27;9.38;;;;;;;21.66;26.65;103309.63;5031847;28;20495;-68
2021/10/08 08:20:56;;;;;;;14.90;10.73;;;;;;;21.23;27.75;103311.66;5027542;28;20045;-68
2021/10/08 08:23:24;;;;;;;11.93;8.52;;;;;;;21.68;29.41;103313.06;5032205;28;20064;-68
2021/10/08 08:25:51;;;;;;;16.73;10.45;;;;;;;22.01;26.47;103315.00;5029120;28;20047;-68
2021/10/08 08:28:17;;;;;;;13.75;9.93;;;;;;;22.41;25.85;103312.13;5031232;28;20170;-67
2021/10/08 08:30:42;;;;;;;13.88;9.98;;;;;;;21.44;28.03;103317.75;5030838;28;20535;-69
2021/10/08 08:33:08;;;;;;;15.88;10.05;;;;;;;20.78;28.76;103315.50;5029861;28;20041;-67
2021/10/08 08:35:34;;;;;;;13.18;10.23;;;;;;;20.69;28.72;103318.56;5029512;28;20077;-67
2021/10/08 08:38:02;;;;;;;14.48;10.40;;;;;;;20.48;29.14;103320.38;5027465;28;20429;-69
2021/10/08 08:40:29;;;;;;;17.33;10.10;;;;;;;20.65;28.98;103315.19;5027524;28;20048;-67
2021/10/08 08:42:57;;;;;;;13.82;8.95;;;;;;;19.94;29.55;103319.97;5028773;28;20037;-67
2021/10/08 08:45:22;;;;;;;14.80;9.65;;;;;;;19.63;31.22;103318.56;5026982;28;20916;-68
2021/10/08 08:48:05;;;;;;;12.80;9.27;;;;;;;19.55;31.47;103309.16;5027646;28;20080;-67
2021/10/08 08:50:32;;;;;;;10.50;8.75;;;;;;;19.30;32.92;103311.00;5031743;28;20072;-67
2021/10/08 08:52:58;;;;;;;15.07;9.50;;;;;;;18.59;32.36;103310.09;5032437;28;20522;-67
2021/10/08 08:55:24;;;;;;;10.85;7.82;;;;;;;18.44;33.56;103306.19;5025566;28;20029;-68
2021/10/08 08:57:50;;;;;;;12.30;8.15;;;;;;;18.44;33.51;103316.78;5029065;28;20067;-67
2021/10/08 09:00:18;;;;;;;13.68;8.63;;;;;;;18.58;32.91;103303.03;5026202;28;20030;-67
2021/10/08 09:02:54;;;;;;;11.02;8.20;;;;;;;18.74;33.44;103306.00;5029724;28;20041;-67
2021/10/08 09:05:23;;;;;;;9.45;8.38;;;;;;;18.78;34.18;103310.28;5044090;28;20077;-68
2021/10/08 09:07:48;;;;;;;13.40;8.00;;;;;;;19.10;33.49;103310.91;5029423;28;20394;-68
2021/10/08 09:10:16;;;;;;;10.82;8.32;;;;;;;18.87;32.81;103309.06;5025465;28;20085;-67
2021/10/08 09:12:43;;;;;;;12.77;8.80;;;;;;;18.74;34.13;103313.94;5028694;28;20068;-68
2021/10/08 09:15:10;;;;;;;11.52;8.13;;;;;;;18.87;33.62;103309.97;5026514;28;20095;-68
2021/10/08 09:17:35;;;;;;;9.25;7.70;;;;;;;18.55;33.95;103312.91;5027403;28;20547;-68
2021/10/08 09:20:08;;;;;;;11.15;8.00;;;;;;;18.44;35.08;103313.28;5033020;28;20037;-67
2021/10/08 09:22:36;;;;;;;12.80;7.97;;;;;;;18.69;34.19;103314.13;5045951;28;20505;-67
2021/10/08 09:25:08;;;;;;;11.15;7.55;;;;;;;18.95;34.47;103316.78;5046666;28;20077;-69
2021/10/08 09:27:40;;;;;;;8.15;6.78;;;;;;;19.24;32.43;103308.59;5033032;28;20355;-68
2021/10/08 09:30:07;;;;;;;9.00;6.45;;;;;;;19.20;33.37;103314.06;5032621;28;20075;-68
2021/10/08 09:32:47;;;;;;;10.27;6.80;;;;;;;19.41;33.08;103309.69;5031164;28;20029;-68
2021/10/08 09:35:16;;;;;;;9.25;6.57;;;;;;;19.25;32.70;103310.31;5028720;28;20098;-68
2021/10/08 09:37:42;;;;;;;15.02;6.63;;;;;;;19.15;33.50;103313.38;5033681;28;20071;-68
2021/10/08 09:40:32;;;;;;;8.77;5.90;;;;;;;19.65;32.36;103315.88;5030137;28;20088;-68
2021/10/08 09:43:05;;;;;;;8.85;6.00;;;;;;;19.55;32.76;103317.09;5025915;28;20041;-69
2021/10/08 09:45:52;;;;;;;8.48;6.18;;;;;;;19.42;33.50;103314.09;5044133;28;20452;-68
2021/10/08 09:48:41;;;;;;;9.10;5.80;;;;;;;19.43;32.65;103319.31;5029255;28;20036;-68
2021/10/08 09:51:13;;;;;;;7.55;6.28;;;;;;;19.78;32.13;103308.28;5019384;28;20087;-68
2021/10/08 09:53:55;;;;;;;6.00;5.40;;;;;;;19.70;33.14;103309.47;5009759;28;20046;-68
2021/10/08 09:56:37;;;;;;;6.85;5.35;;;;;;;19.72;31.88;103309.38;5026155;28;20037;-68
2021/10/08 09:59:05;;;;;;;6.78;5.60;;;;;;;19.65;33.35;103307.91;5028090;28;20132;-68
2021/10/08 10:01:33;;;;;;;7.03;5.10;;;;;;;19.97;32.68;103309.25;5043137;28;20510;-68
2021/10/08 10:03:59;;;;;;;7.38;5.43;;;;;;;20.10;31.66;103318.44;5027112;28;20033;-68
2021/10/08 10:06:26;;;;;;;6.50;4.25;;;;;;;19.88;32.17;103320.22;5028121;28;20133;-68
2021/10/08 10:08:52;;;;;;;5.80;4.28;;;;;;;19.83;31.39;103317.75;5027861;28;20033;-69
2021/10/08 10:11:26;;;;;;;7.05;3.63;;;;;;;19.97;31.28;103325.19;5033229;28;20044;-69
2021/10/08 10:13:57;;;;;;;6.88;3.95;;;;;;;19.80;31.56;103320.56;5025834;28;20655;-69
2021/10/08 10:16:24;;;;;;;8.05;4.25;;;;;;;19.81;31.42;103318.75;5026372;28;20037;-68
2021/10/08 10:18:55;;;;;;;5.93;3.40;;;;;;;19.68;31.56;103319.28;5026889;28;20684;-69
2021/10/08 10:21:22;;;;;;;6.60;4.55;;;;;;;19.95;31.95;103328.78;5029305;28;20033;-67
2021/10/08 10:23:53;;;;;;;4.20;3.53;;;;;;;20.23;30.87;103320.56;5029800;28;20517;-69
2021/10/08 10:26:20;;;;;;;6.78;3.42;;;;;;;20.52;30.27;103324.63;5028788;28;20183;-69
2021/10/08 10:28:47;;;;;;;4.28;3.42;;;;;;;20.53;30.69;103313.94;5028665;28;20017;-69
2021/10/08 10:31:13;;;;;;;4.32;3.50;;;;;;;20.59;29.41;103309.28;5027073;28;20033;-69
2021/10/08 10:33:39;;;;;;;4.13;3.08;;;;;;;20.57;29.37;103308.47;5030536;28;20076;-69
2021/10/08 10:36:21;;;;;;;4.38;3.60;;;;;;;20.70;29.44;103313.16;5026464;28;20107;-69
2021/10/08 10:38:46;;;;;;;;;;;;;;;20.46;29.77;103307.19;5027343;28;20211;-69
2021/10/08 10:41:12;;;;;;;4.75;4.35;;;;;;;20.42;29.39;103316.22;5043125;28;20400;-69
2021/10/08 10:43:43;;;;;;;7.63;4.53;;;;;;;20.19;31.73;103310.97;5029119;28;20417;-68
2021/10/08 10:46:45;;;;;;;5.83;4.93;;;;;;;20.81;30.66;103311.84;5044351;28;20077;-69
2021/10/08 10:52:02;;;;;;;8.85;5.22;;;;;;;20.93;29.90;103305.97;5027279;28;20044;-70
2021/10/08 10:54:34;;;;;;;7.97;5.30;;;;;;;20.71;29.12;103309.59;5026831;28;20049;-68
2021/10/08 10:57:03;;;;;;;6.03;4.85;;;;;;;20.51;30.69;103305.16;5029229;28;20041;-68
2021/10/08 10:59:32;;;;;;;2.92;1.90;;;;;;;19.84;28.93;103308.88;5023872;28;20041;-68
2021/10/08 11:02:12;;;;;;;3.10;1.65;;;;;;;19.75;29.89;103303.06;5028892;28;20048;-70
2021/10/08 11:04:41;;;;;;;2.95;1.52;;;;;;;19.77;30.10;103302.13;5043598;28;20490;-70
2021/10/08 11:07:09;;;;;;;2.35;1.90;;;;;;;20.25;28.68;103308.09;5026566;28;20030;-69
2021/10/08 11:09:35;;;;;;;3.95;1.45;;;;;;;20.65;30.00;103301.03;5027368;28;20086;-68
2021/10/08 11:12:38;;;;;;;2.50;1.52;;;;;;;20.19;28.30;103290.59;5028406;28;20033;-68
2021/10/08 11:15:19;;;;;;;5.57;2.60;;;;;;;20.07;28.85;103299.94;5017779;28;20091;-69
2021/10/08 11:17:45;;;;;;;2.67;2.20;;;;;;;20.21;28.60;103295.88;5031385;28;20107;-69
2021/10/08 11:20:32;;;;;;;3.25;2.20;;;;;;;20.05;28.76;103296.50;5009556;28;20497;-68
2021/10/08 11:23:00;;;;;;;3.78;2.22;;;;;;;20.21;28.05;103298.53;5024875;28;20045;-69
2021/10/08 11:25:33;;;;;;;3.88;1.60;;;;;;;20.08;28.60;103293.72;5027505;28;20080;-70
2021/10/08 11:27:59;;;;;;;2.55;1.75;;;;;;;20.10;28.12;103289.22;5027589;28;20041;-69
2021/10/08 11:30:28;;;;;;;4.35;1.40;;;;;;;19.63;29.00;103294.69;5023804;28;20037;-69
2021/10/08 11:32:56;;;;;;;3.67;1.83;;;;;;;19.83;28.95;103290.38;5030760;28;20041;-69